Weather at Eslöv Airport

Public forecast

Using degrees Celsius for public forecast. Weather courtesy of forecast.io.

Closest aviation weather report (METAR) to Eslöv Airport

Closest report is Ljungbyhed Airport, 14.6 nm (27.1 km) NNW. Retrieved 2021/09/25 17:20 UTC (1 hour ago):

ESTL 251720Z AUTO 29003KT 9999 NCD 11/11 Q1015

Closest aviation forecast (TAF) to Eslöv Airport

Forecast is more than 12 hours old.

Closest forecast is Ljungbyhed Airport, 14.6 nm (27.1 km) NNW. Retrieved 2016/03/01 09:33 UTC (6 years ago):

TAF ESTL 010830Z 0109/0124 14004KT 9999 SCT025